Time;durP1;ratioP1;P1;durP2;ratioP2;P2;SDS_P1;SDS_P2;PMS_P1;PMS_P2;Temp;Humidity;BMP_temperature;BMP_pressure;BME280_temperature;BME280_humidity;BME280_pressure;Samples;Min_cycle;Max_cycle;Signal;HPM_P1;HPM_P2
2023/09/09 00:02:14;;;;;;;16.77;14.63;;;;;;;17.58;87.18;93256.34;5058773;28;20229;-78
2023/09/09 00:04:40;;;;;;;15.30;14.00;;;;;;;17.48;86.80;93251.31;5071209;28;20219;-83
2023/09/09 00:07:06;;;;;;;15.23;13.70;;;;;;;17.46;86.49;93244.81;5071516;28;20229;-82
2023/09/09 00:09:32;;;;;;;14.67;13.10;;;;;;;17.46;86.45;93245.56;5071589;28;20211;-83
2023/09/09 00:11:57;;;;;;;14.13;13.03;;;;;;;17.59;85.27;93255.25;5071124;28;20222;-84
2023/09/09 00:14:23;;;;;;;15.27;13.77;;;;;;;17.44;86.38;93255.66;5071596;28;20224;-83
2023/09/09 00:16:48;;;;;;;15.90;14.13;;;;;;;17.63;86.64;93258.81;5071222;28;20324;-80
2023/09/09 00:19:13;;;;;;;17.17;15.47;;;;;;;17.62;86.82;93267.06;5071254;28;20191;-83
2023/09/09 00:21:39;;;;;;;17.30;15.90;;;;;;;17.38;89.24;93262.13;5070627;28;20234;-82
2023/09/09 00:24:04;;;;;;;18.17;16.50;;;;;;;17.28;90.81;93262.38;5071314;28;20192;-83
2023/09/09 00:26:31;;;;;;;19.10;17.20;;;;;;;17.19;91.29;93255.50;5070268;28;20217;-83
2023/09/09 00:28:57;;;;;;;20.33;16.87;;;;;;;17.05;93.36;93257.44;5071186;28;20192;-82
2023/09/09 00:31:23;;;;;;;17.67;16.20;;;;;;;17.01;94.07;93259.13;5070620;28;20252;-84
2023/09/09 00:33:48;;;;;;;18.43;16.87;;;;;;;16.92;93.69;93251.16;5070001;28;20860;-83
2023/09/09 00:36:14;;;;;;;18.97;17.27;;;;;;;17.01;93.65;93259.13;5069940;28;20224;-78
2023/09/09 00:38:40;;;;;;;18.63;16.80;;;;;;;16.92;94.14;93248.50;5070604;28;20425;-84
2023/09/09 00:41:13;;;;;;;18.97;17.27;;;;;;;16.94;95.19;93259.56;5060325;28;20226;-83
2023/09/09 00:43:39;;;;;;;18.57;16.93;;;;;;;16.99;95.02;93259.44;5051434;28;20195;-83
2023/09/09 00:46:06;;;;;;;16.97;15.50;;;;;;;16.88;95.54;93258.13;5050088;28;20237;-83
2023/09/09 00:48:31;;;;;;;18.23;16.40;;;;;;;16.83;95.31;93257.44;5050251;28;20356;-82
2023/09/09 00:50:57;;;;;;;19.17;17.47;;;;;;;16.89;95.11;93259.66;5050284;28;20234;-83
2023/09/09 00:53:23;;;;;;;18.10;16.40;;;;;;;16.86;95.22;93262.91;5051061;28;20195;-84
2023/09/09 00:55:48;;;;;;;19.83;18.07;;;;;;;16.84;95.07;93257.16;5049993;28;20241;-84
2023/09/09 00:58:14;;;;;;;19.60;18.00;;;;;;;16.86;94.80;93255.00;5050658;28;20190;-83
2023/09/09 01:00:40;;;;;;;19.03;17.20;;;;;;;16.93;94.26;93255.38;5049923;28;20218;-84
2023/09/09 01:03:05;;;;;;;17.80;16.20;;;;;;;16.94;94.29;93251.63;5050707;28;20738;-80
2023/09/09 01:05:32;;;;;;;19.73;18.00;;;;;;;16.95;94.46;93247.16;5049485;28;20222;-84
2023/09/09 01:07:57;;;;;;;18.13;16.27;;;;;;;16.87;94.80;93235.44;5050589;28;20189;-83
2023/09/09 01:10:23;;;;;;;18.50;16.50;;;;;;;16.69;95.83;93231.16;5053424;28;20237;-80
2023/09/09 01:12:50;;;;;;;18.53;17.03;;;;;;;16.72;95.93;93237.69;5071054;28;20212;-83
2023/09/09 01:15:15;;;;;;;19.90;18.00;;;;;;;16.59;96.83;93226.09;5066157;28;20226;-83
2023/09/09 01:17:42;;;;;;;18.60;16.70;;;;;;;16.58;96.79;93227.19;5050310;28;20229;-83
2023/09/09 01:20:14;;;;;;;17.47;15.90;;;;;;;16.51;96.33;93224.22;5049421;28;20220;-83
2023/09/09 01:22:43;;;;;;;19.03;17.17;;;;;;;16.49;95.94;93222.94;5061074;28;20208;-82
2023/09/09 01:25:10;;;;;;;18.87;17.17;;;;;;;16.45;95.60;93225.38;5069098;28;20186;-83
2023/09/09 01:27:35;;;;;;;15.77;14.43;;;;;;;16.33;95.89;93230.38;5070028;28;20181;-83
2023/09/09 01:30:01;;;;;;;17.27;15.67;;;;;;;16.26;96.32;93227.41;5069214;28;20209;-83
2023/09/09 01:32:27;;;;;;;16.37;14.97;;;;;;;16.24;96.20;93223.47;5067692;28;20185;-82
2023/09/09 01:34:52;;;;;;;17.03;15.60;;;;;;;16.23;96.24;93228.00;5070244;28;20189;-84
2023/09/09 01:37:18;;;;;;;18.80;16.43;;;;;;;16.00;96.79;93186.84;5069654;28;20217;-83
2023/09/09 01:39:44;;;;;;;18.63;16.97;;;;;;;16.20;97.07;93227.81;5057534;28;20246;-83
2023/09/09 01:42:10;;;;;;;18.13;16.30;;;;;;;16.11;97.21;93222.44;5069581;28;20248;-84
2023/09/09 01:44:36;;;;;;;18.17;16.57;;;;;;;16.01;97.53;93223.47;5069594;28;20193;-82
2023/09/09 01:47:01;;;;;;;15.97;14.50;;;;;;;16.06;96.64;93223.34;5069017;28;20229;-83
2023/09/09 01:49:27;;;;;;;14.87;13.47;;;;;;;15.77;97.83;93211.59;5068151;28;20201;-83
2023/09/09 01:51:52;;;;;;;14.90;13.80;;;;;;;15.72;98.37;93227.50;5067459;28;20289;-84
2023/09/09 01:54:17;;;;;;;15.27;13.97;;;;;;;15.73;98.24;93223.78;5069669;28;20189;-79
2023/09/09 01:56:43;;;;;;;14.83;13.53;;;;;;;15.72;97.49;93222.25;5068586;28;20223;-83
2023/09/09 01:59:08;;;;;;;14.43;13.23;;;;;;;15.65;98.02;93224.47;5069439;28;20204;-83
2023/09/09 02:01:34;;;;;;;15.83;14.23;;;;;;;15.57;99.15;93219.91;5068688;28;20224;-84
2023/09/09 02:03:59;;;;;;;15.70;14.20;;;;;;;15.30;98.51;93178.56;5068906;28;20188;-83
2023/09/09 02:06:28;;;;;;;13.80;12.53;;;;;;;15.50;98.11;93211.63;5069075;28;20247;-83
2023/09/09 02:08:53;;;;;;;14.07;13.07;;;;;;;15.50;98.41;93227.44;5068352;28;20207;-83
2023/09/09 02:11:19;;;;;;;15.97;14.33;;;;;;;15.37;98.18;93212.38;5068637;28;20217;-83
2023/09/09 02:13:44;;;;;;;13.33;12.33;;;;;;;15.61;97.00;93228.78;5068897;28;20201;-83
2023/09/09 02:16:10;;;;;;;14.50;13.20;;;;;;;15.36;98.81;93221.34;5064192;28;20228;-84
2023/09/09 02:18:39;;;;;;;14.37;12.97;;;;;;;15.27;99.36;93207.31;5069405;28;20181;-83
2023/09/09 02:21:05;;;;;;;15.53;14.37;;;;;;;15.10;99.69;93210.50;5067488;28;20221;-83
2023/09/09 02:23:31;;;;;;;13.80;12.50;;;;;;;15.17;99.63;93218.81;5069111;28;20181;-83
2023/09/09 02:25:56;;;;;;;14.37;13.17;;;;;;;15.33;98.88;93227.19;5068571;28;20237;-84
2023/09/09 02:28:22;;;;;;;14.33;12.93;;;;;;;15.20;99.58;93233.22;5069099;28;20275;-83
2023/09/09 02:30:48;;;;;;;14.17;12.97;;;;;;;15.19;99.12;93226.41;5068489;28;20236;-82
2023/09/09 02:33:14;;;;;;;13.50;12.60;;;;;;;15.16;99.70;93224.38;5068855;28;20185;-82
2023/09/09 02:35:43;;;;;;;14.50;13.30;;;;;;;15.18;99.43;93224.81;5068012;28;20228;-83
2023/09/09 02:38:08;;;;;;;13.13;11.93;;;;;;;15.09;99.87;93223.94;5069061;28;20257;-83
2023/09/09 02:40:34;;;;;;;13.43;12.37;;;;;;;14.97;99.62;93218.38;5067953;28;20213;-83
2023/09/09 02:42:59;;;;;;;14.20;12.70;;;;;;;14.97;100.00;93224.44;5069471;28;20724;-84
2023/09/09 02:45:25;;;;;;;15.53;13.87;;;;;;;15.04;100.00;93226.66;5067578;28;20237;-83
2023/09/09 02:47:50;;;;;;;14.53;13.43;;;;;;;14.94;100.00;93219.72;5068488;28;20238;-78
2023/09/09 02:50:15;;;;;;;15.77;14.17;;;;;;;14.89;100.00;93224.31;5068236;28;20233;-84
2023/09/09 02:52:41;;;;;;;15.73;14.40;;;;;;;15.07;100.00;93220.81;5068723;28;20178;-82
2023/09/09 02:55:07;;;;;;;14.97;13.47;;;;;;;14.91;100.00;93227.44;5067923;28;20197;-84
2023/09/09 02:57:32;;;;;;;14.83;13.73;;;;;;;14.92;100.00;93231.63;5068656;28;20268;-84
2023/09/09 02:59:57;;;;;;;15.07;13.57;;;;;;;14.91;100.00;93215.06;5070094;28;20216;-79
2023/09/09 03:02:23;;;;;;;14.47;13.23;;;;;;;14.87;100.00;93232.47;5072047;28;20253;-84
2023/09/09 03:04:48;;;;;;;14.97;13.87;;;;;;;14.79;100.00;93221.84;5071414;28;20184;-83
2023/09/09 03:07:14;;;;;;;13.93;12.73;;;;;;;14.70;100.00;93229.63;5072454;28;20251;-84
2023/09/09 03:09:39;;;;;;;16.50;15.10;;;;;;;14.66;100.00;93227.84;5071928;28;20872;-83
2023/09/09 03:12:05;;;;;;;15.73;14.53;;;;;;;14.71;100.00;93235.66;5071963;28;20235;-79
2023/09/09 03:14:31;;;;;;;16.50;15.10;;;;;;;14.71;100.00;93230.41;5072959;28;20181;-83
2023/09/09 03:16:58;;;;;;;15.93;14.60;;;;;;;14.66;100.00;93206.84;5071743;28;20236;-84
2023/09/09 03:19:24;;;;;;;16.93;15.40;;;;;;;14.62;100.00;93205.84;5072328;28;20197;-83
2023/09/09 03:21:50;;;;;;;14.87;13.73;;;;;;;14.67;100.00;93224.16;5070673;28;20225;-79
2023/09/09 03:24:15;;;;;;;15.93;14.63;;;;;;;14.61;100.00;93218.22;5071967;28;20188;-83
2023/09/09 03:26:40;;;;;;;17.00;15.40;;;;;;;14.51;100.00;93220.22;5057258;28;20222;-83
2023/09/09 03:29:06;;;;;;;15.97;13.77;;;;;;;14.60;100.00;93223.75;5052099;28;20240;-83
2023/09/09 03:31:31;;;;;;;14.07;12.87;;;;;;;14.44;100.00;93221.34;5065366;28;20225;-82
2023/09/09 03:33:56;;;;;;;11.67;10.87;;;;;;;14.54;100.00;93240.69;5071959;28;20220;-78
2023/09/09 03:36:22;;;;;;;12.13;11.20;;;;;;;14.46;100.00;93234.19;5071650;28;20229;-83
2023/09/09 03:38:47;;;;;;;12.40;11.50;;;;;;;14.36;100.00;93223.88;5071665;28;20211;-82
2023/09/09 03:41:13;;;;;;;13.00;12.00;;;;;;;14.28;100.00;93232.38;5071769;28;20240;-84
2023/09/09 03:43:38;;;;;;;13.37;12.23;;;;;;;14.21;100.00;93224.81;5071835;28;20185;-83
2023/09/09 03:46:04;;;;;;;13.00;11.90;;;;;;;14.19;100.00;93224.31;5071718;28;20965;-83
2023/09/09 03:48:29;;;;;;;13.93;13.00;;;;;;;14.22;100.00;93225.63;5071256;28;20221;-84
2023/09/09 03:50:59;;;;;;;13.63;12.50;;;;;;;14.17;100.00;93215.19;5071186;28;20225;-82
2023/09/09 03:53:25;;;;;;;14.17;13.17;;;;;;;14.01;100.00;93212.00;5071502;28;20209;-84
2023/09/09 03:55:50;;;;;;;12.33;11.30;;;;;;;14.11;100.00;93226.81;5071115;28;20220;-84
2023/09/09 03:58:16;;;;;;;11.97;11.07;;;;;;;14.05;100.00;93207.75;5071743;28;20211;-84
2023/09/09 04:00:41;;;;;;;12.40;11.60;;;;;;;14.10;100.00;93209.53;5070967;28;20232;-83
2023/09/09 04:03:07;;;;;;;13.17;11.43;;;;;;;14.15;100.00;93225.97;5071116;28;20628;-78
2023/09/09 04:05:32;;;;;;;13.23;11.97;;;;;;;14.13;100.00;93222.84;5065487;28;20684;-83
2023/09/09 04:08:03;;;;;;;12.47;11.57;;;;;;;14.04;100.00;93232.44;5051396;28;20186;-83
2023/09/09 04:10:28;;;;;;;12.90;11.80;;;;;;;14.15;100.00;93233.84;5055320;28;20225;-83
2023/09/09 04:12:53;;;;;;;12.53;11.33;;;;;;;13.98;100.00;93217.81;5069069;28;20231;-84
2023/09/09 04:15:19;;;;;;;11.83;11.07;;;;;;;14.06;100.00;93235.56;5071328;28;20217;-84
2023/09/09 04:17:44;;;;;;;12.23;11.20;;;;;;;14.10;100.00;93239.16;5071139;28;20182;-83
2023/09/09 04:20:10;;;;;;;13.30;12.33;;;;;;;14.04;100.00;93235.06;5071104;28;20186;-83
2023/09/09 04:22:35;;;;;;;14.37;13.17;;;;;;;14.19;100.00;93232.19;5070861;28;20182;-83
2023/09/09 04:25:00;;;;;;;14.63;13.37;;;;;;;14.16;100.00;93232.00;5070667;28;20193;-83
2023/09/09 04:27:26;;;;;;;14.20;13.10;;;;;;;14.30;100.00;93228.41;5071253;28;20189;-84
2023/09/09 04:29:51;;;;;;;13.13;12.13;;;;;;;14.26;100.00;93209.03;5070814;28;20209;-83
2023/09/09 04:32:17;;;;;;;14.60;13.30;;;;;;;14.38;100.00;93234.88;5069927;28;20229;-85
2023/09/09 04:34:42;;;;;;;14.10;13.00;;;;;;;14.47;100.00;93217.38;5070687;28;20177;-83
2023/09/09 04:37:08;;;;;;;15.57;14.30;;;;;;;14.69;100.00;93230.69;5070063;28;20267;-83
2023/09/09 04:39:33;;;;;;;17.03;15.53;;;;;;;14.68;100.00;93233.63;5069737;28;20199;-85
2023/09/09 04:41:58;;;;;;;15.50;13.87;;;;;;;14.76;100.00;93233.72;5070024;28;20221;-83
2023/09/09 04:44:24;;;;;;;15.10;13.53;;;;;;;14.71;100.00;93230.41;5071504;28;20177;-83
2023/09/09 04:46:49;;;;;;;16.90;15.20;;;;;;;14.88;100.00;93233.28;5053732;28;20244;-83
2023/09/09 04:49:17;;;;;;;14.97;13.47;;;;;;;14.85;100.00;93220.72;5038532;28;20214;-83
2023/09/09 04:51:43;;;;;;;15.70;14.20;;;;;;;15.04;100.00;93237.19;5050047;28;20214;-83
2023/09/09 04:54:08;;;;;;;16.23;14.73;;;;;;;15.06;100.00;93232.41;5050739;28;20229;-85
2023/09/09 04:56:34;;;;;;;16.20;14.80;;;;;;;15.15;100.00;93228.84;5063709;28;20237;-82
2023/09/09 04:58:59;;;;;;;16.30;14.07;;;;;;;15.24;100.00;93227.09;5070249;28;20205;-81
2023/09/09 05:01:24;;;;;;;17.10;15.60;;;;;;;15.35;100.00;93231.09;5057393;28;20229;-83
2023/09/09 05:03:50;;;;;;;17.73;15.90;;;;;;;15.40;100.00;93238.13;5049998;28;20289;-82
2023/09/09 05:06:15;;;;;;;18.23;16.63;;;;;;;15.56;100.00;93236.78;5061091;28;20235;-84
2023/09/09 05:08:40;;;;;;;18.93;17.23;;;;;;;15.62;100.00;93239.03;5070226;28;20193;-82
2023/09/09 05:11:06;;;;;;;21.03;18.93;;;;;;;15.62;100.00;93241.66;5069015;28;20258;-80
2023/09/09 05:13:31;;;;;;;23.53;18.50;;;;;;;15.72;100.00;93236.16;5069707;28;20174;-83
2023/09/09 05:15:57;;;;;;;21.53;19.43;;;;;;;15.73;100.00;93234.31;5069254;28;20225;-83
2023/09/09 05:18:22;;;;;;;24.63;20.53;;;;;;;15.83;100.00;93239.38;5052560;28;20192;-83
2023/09/09 05:20:48;;;;;;;22.37;20.00;;;;;;;15.99;100.00;93232.72;5068371;28;20217;-85
2023/09/09 05:23:13;;;;;;;24.87;20.73;;;;;;;16.04;100.00;93233.41;5069995;28;20240;-83
2023/09/09 05:25:38;;;;;;;23.40;21.00;;;;;;;16.13;100.00;93236.09;5069460;28;20814;-85
2023/09/09 05:28:04;;;;;;;23.77;21.20;;;;;;;16.07;100.00;93234.66;5070387;28;20245;-84
2023/09/09 05:30:30;;;;;;;21.97;19.53;;;;;;;16.04;100.00;93232.63;5061826;28;20310;-82
2023/09/09 05:32:55;;;;;;;27.30;20.20;;;;;;;16.01;100.00;93223.47;5049830;28;20186;-83
2023/09/09 05:35:20;;;;;;;24.20;19.80;;;;;;;16.20;100.00;93241.75;5049343;28;20217;-85
2023/09/09 05:37:46;;;;;;;25.37;20.77;;;;;;;16.21;100.00;93237.25;5048037;28;20213;-83
2023/09/09 05:40:12;;;;;;;24.93;22.10;;;;;;;16.37;100.00;93249.03;5049283;28;20178;-83
2023/09/09 05:42:40;;;;;;;22.70;20.47;;;;;;;16.43;100.00;93235.44;5049925;28;20414;-82
2023/09/09 05:45:08;;;;;;;25.30;20.50;;;;;;;16.61;100.00;93245.06;5049623;28;20271;-83
2023/09/09 05:47:35;;;;;;;23.90;21.30;;;;;;;16.65;100.00;93238.13;5048220;28;20221;-82
2023/09/09 05:50:01;;;;;;;24.73;20.97;;;;;;;16.71;99.98;93238.75;5049202;28;20209;-84
2023/09/09 05:52:27;;;;;;;28.83;20.00;;;;;;;16.70;100.00;93234.56;5048310;28;20203;-85
2023/09/09 05:54:52;;;;;;;24.00;20.47;;;;;;;16.52;100.00;93249.50;5049537;28;20192;-88
2023/09/09 05:57:18;;;;;;;32.90;22.87;;;;;;;16.67;100.00;93241.22;5069269;28;20209;-85
2023/09/09 05:59:43;;;;;;;23.50;21.00;;;;;;;16.68;100.00;93248.06;5069414;28;20398;-82
2023/09/09 06:02:09;;;;;;;30.97;20.97;;;;;;;17.23;97.91;93249.31;5069213;28;20221;-81
2023/09/09 06:04:34;;;;;;;24.03;21.53;;;;;;;17.09;97.41;93253.91;5069275;28;20207;-83
2023/09/09 06:07:00;;;;;;;26.87;20.73;;;;;;;17.00;98.08;93253.06;5068797;28;20315;-84
2023/09/09 06:09:25;;;;;;;24.97;20.33;;;;;;;17.16;97.58;93256.09;5069594;28;20208;-84
2023/09/09 06:11:51;;;;;;;24.43;20.50;;;;;;;17.36;95.19;93258.22;5068909;28;20418;-85
2023/09/09 06:14:16;;;;;;;27.97;21.43;;;;;;;17.57;93.69;93259.28;5069641;28;20216;-84
2023/09/09 06:16:41;;;;;;;22.13;19.93;;;;;;;17.64;92.87;93262.25;5068913;28;20357;-85
2023/09/09 06:19:07;;;;;;;24.97;19.97;;;;;;;17.78;90.81;93265.56;5069318;28;20296;-84
2023/09/09 06:21:32;;;;;;;23.03;20.70;;;;;;;17.48;91.59;93263.72;5067777;28;20217;-82
2023/09/09 06:23:58;;;;;;;23.77;19.53;;;;;;;17.46;93.31;93258.75;5069507;28;20200;-84
2023/09/09 06:26:23;;;;;;;28.57;21.73;;;;;;;17.27;95.47;93266.13;5068493;28;20224;-83
2023/09/09 06:28:49;;;;;;;32.03;21.53;;;;;;;17.53;94.47;93259.13;5069485;28;20189;-80
2023/09/09 06:31:14;;;;;;;21.40;19.17;;;;;;;17.51;94.51;93263.13;5068396;28;20984;-83
2023/09/09 06:33:40;;;;;;;24.23;20.27;;;;;;;17.95;92.49;93267.47;5068897;28;20174;-84
2023/09/09 06:36:05;;;;;;;22.73;20.40;;;;;;;18.17;90.48;93265.50;5072608;28;20281;-84
2023/09/09 06:38:30;;;;;;;22.90;20.50;;;;;;;18.24;89.30;93263.19;5073145;28;20186;-84
2023/09/09 06:40:56;;;;;;;20.93;18.73;;;;;;;18.09;89.48;93260.97;5072628;28;20247;-84
2023/09/09 06:43:21;;;;;;;25.93;18.50;;;;;;;18.24;90.00;93262.41;5073270;28;20254;-84
2023/09/09 06:45:48;;;;;;;23.30;19.77;;;;;;;18.37;90.40;93264.91;5072933;28;20217;-84
2023/09/09 06:48:17;;;;;;;22.40;18.53;;;;;;;18.61;87.62;93275.84;5071518;28;20213;-82
2023/09/09 06:50:47;;;;;;;19.67;17.87;;;;;;;18.91;85.66;93279.44;5071869;28;20214;-82
2023/09/09 06:53:13;;;;;;;20.10;17.87;;;;;;;18.69;86.30;93263.72;5063691;28;20257;-83
2023/09/09 06:55:41;;;;;;;20.60;18.40;;;;;;;18.87;86.64;93267.91;5072482;28;20215;-85
2023/09/09 06:58:07;;;;;;;19.40;17.47;;;;;;;19.04;86.18;93273.16;5073011;28;20186;-86
2023/09/09 07:00:32;;;;;;;22.23;19.03;;;;;;;19.15;85.05;93277.03;5066703;28;20236;-84
2023/09/09 07:02:58;;;;;;;18.97;16.30;;;;;;;18.91;84.29;93279.44;5052477;28;20364;-85
2023/09/09 07:05:24;;;;;;;18.07;16.27;;;;;;;19.45;82.42;93284.03;5056337;28;20223;-85
2023/09/09 07:07:50;;;;;;;17.97;16.27;;;;;;;19.78;80.90;93278.91;5072647;28;20174;-83
2023/09/09 07:10:15;;;;;;;19.60;15.83;;;;;;;19.82;80.14;93279.81;5072052;28;20282;-83
2023/09/09 07:12:42;;;;;;;18.20;16.33;;;;;;;20.08;78.67;93286.56;5072493;28;20183;-84
2023/09/09 07:15:08;;;;;;;16.30;14.60;;;;;;;20.12;77.62;93279.53;5072290;28;20191;-84
2023/09/09 07:17:34;;;;;;;16.37;14.63;;;;;;;20.05;76.98;93283.78;5072090;28;20846;-83
2023/09/09 07:19:59;;;;;;;20.17;14.87;;;;;;;20.38;76.54;93282.06;5071878;28;20187;-84
2023/09/09 07:22:25;;;;;;;20.55;15.32;;;;;;;20.53;74.87;93292.88;5071806;28;20183;-84
2023/09/09 07:24:50;;;;;;;14.80;13.33;;;;;;;20.41;71.85;93290.16;5061759;28;20185;-86
2023/09/09 07:27:16;;;;;;;11.03;10.13;;;;;;;20.21;60.12;93285.59;5071952;28;20930;-84
2023/09/09 07:29:41;;;;;;;12.93;10.90;;;;;;;20.63;61.74;93292.50;5072034;28;20226;-82
2023/09/09 07:32:07;;;;;;;11.77;9.63;;;;;;;20.70;58.83;93274.16;5070941;28;20262;-85
2023/09/09 07:34:34;;;;;;;11.50;10.40;;;;;;;20.95;58.63;93295.53;5071932;28;20575;-84
2023/09/09 07:36:59;;;;;;;9.63;8.73;;;;;;;20.84;54.65;93299.69;5071733;28;20231;-81
2023/09/09 07:39:27;;;;;;;10.18;9.48;;;;;;;21.12;53.22;93306.03;5072245;28;20661;-84
2023/09/09 07:41:53;;;;;;;9.30;8.60;;;;;;;21.32;49.94;93308.66;5071895;28;20232;-84
2023/09/09 07:44:18;;;;;;;9.20;8.40;;;;;;;21.21;48.24;93294.25;5071678;28;20222;-82
2023/09/09 07:46:43;;;;;;;9.57;8.85;;;;;;;21.36;47.87;93293.63;5070450;28;20218;-80
2023/09/09 07:49:09;;;;;;;9.15;8.45;;;;;;;21.40;48.38;93297.16;5059547;28;20747;-84
2023/09/09 07:51:35;;;;;;;11.77;9.38;;;;;;;21.59;48.75;93294.78;5070167;28;20235;-84
2023/09/09 07:54:00;;;;;;;9.13;8.52;;;;;;;21.51;47.29;93297.53;5058845;28;20257;-84
2023/09/09 07:56:25;;;;;;;8.88;8.38;;;;;;;21.53;47.31;93298.75;5071185;28;20220;-84
2023/09/09 07:58:51;;;;;;;9.43;8.57;;;;;;;21.35;48.05;93254.09;5071342;28;20196;-80
2023/09/09 08:01:16;;;;;;;9.38;8.77;;;;;;;21.82;48.54;93303.16;5071246;28;20233;-84
2023/09/09 08:03:41;;;;;;;9.43;8.82;;;;;;;21.69;50.20;93302.34;5071559;28;20203;-84
2023/09/09 08:06:07;;;;;;;9.75;8.95;;;;;;;21.65;49.34;93282.81;5061048;28;20237;-84
2023/09/09 08:08:35;;;;;;;10.00;9.20;;;;;;;21.93;47.85;93298.97;5051220;28;20183;-84
2023/09/09 08:11:02;;;;;;;9.93;9.05;;;;;;;22.04;44.35;93300.06;5050832;28;20230;-83
2023/09/09 08:13:27;;;;;;;9.18;8.57;;;;;;;21.82;47.09;93289.88;5051011;28;20180;-85
2023/09/09 08:15:52;;;;;;;9.40;8.70;;;;;;;22.02;45.96;93294.31;5059371;28;20218;-84
2023/09/09 08:18:18;;;;;;;10.20;9.50;;;;;;;21.82;45.59;93258.72;5070785;28;20182;-83
2023/09/09 08:20:44;;;;;;;9.75;8.90;;;;;;;21.45;47.85;93283.69;5064122;28;20296;-81
2023/09/09 08:23:09;;;;;;;8.73;8.00;;;;;;;21.69;45.73;93289.06;5049978;28;20216;-83
2023/09/09 08:25:35;;;;;;;9.90;9.30;;;;;;;21.91;46.37;93293.22;5056608;28;21008;-83
2023/09/09 08:28:03;;;;;;;9.27;8.50;;;;;;;22.04;46.17;93276.91;5071090;28;20798;-84
2023/09/09 08:30:29;;;;;;;9.75;8.93;;;;;;;22.15;43.94;93293.19;5070430;28;20230;-84
2023/09/09 08:32:55;;;;;;;9.07;8.32;;;;;;;21.66;43.80;93292.38;5070727;28;20755;-83
2023/09/09 08:35:21;;;;;;;8.25;7.75;;;;;;;21.72;46.00;93284.94;5070446;28;20244;-80
2023/09/09 08:37:47;;;;;;;9.50;8.80;;;;;;;22.01;44.19;93292.75;5070713;28;20207;-84
2023/09/09 08:40:13;;;;;;;9.25;8.40;;;;;;;22.19;41.41;93286.88;5070931;28;20227;-83
2023/09/09 08:42:44;;;;;;;8.52;7.85;;;;;;;22.29;42.41;93284.91;5057831;28;20194;-84
2023/09/09 08:45:22;;;;;;;9.63;8.75;;;;;;;22.34;41.79;93276.66;5069897;28;20215;-79
2023/09/09 08:47:50;;;;;;;9.35;8.55;;;;;;;22.26;42.53;93282.91;5070989;28;20220;-79
2023/09/09 08:50:16;;;;;;;8.48;7.88;;;;;;;22.38;43.40;93282.91;5070189;28;20229;-83
2023/09/09 08:52:43;;;;;;;9.65;9.05;;;;;;;22.39;42.15;93274.56;5070311;28;20180;-83
2023/09/09 08:55:09;;;;;;;9.63;8.80;;;;;;;22.33;42.98;93275.91;5066488;28;20192;-82
2023/09/09 08:57:35;;;;;;;10.13;9.52;;;;;;;22.38;43.83;93277.56;5048777;28;20195;-83
2023/09/09 09:00:03;;;;;;;10.32;9.52;;;;;;;22.19;43.53;93267.50;5047944;28;20845;-82
2023/09/09 09:02:29;;;;;;;9.90;9.20;;;;;;;22.54;40.96;93281.88;5041317;28;20188;-83
2023/09/09 09:04:56;;;;;;;9.63;8.93;;;;;;;22.64;39.79;93275.34;5044085;28;20211;-82
2023/09/09 09:07:22;;;;;;;10.45;9.75;;;;;;;22.47;40.38;93265.69;5049690;28;20186;-84
2023/09/09 09:09:48;;;;;;;10.75;9.95;;;;;;;22.18;42.55;93269.38;5048223;28;20266;-84
2023/09/09 09:12:14;;;;;;;8.77;8.20;;;;;;;22.17;41.37;93264.38;5049008;28;20226;-82
2023/09/09 09:14:46;;;;;;;10.00;9.40;;;;;;;22.35;42.99;93263.03;5049691;28;20178;-83
2023/09/09 09:17:15;;;;;;;9.45;8.60;;;;;;;22.43;43.63;93269.38;5050417;28;20212;-83
2023/09/09 09:19:40;;;;;;;9.18;8.55;;;;;;;22.74;41.75;93272.97;5049607;28;20188;-82
2023/09/09 09:22:06;;;;;;;9.68;8.77;;;;;;;22.76;41.54;93273.41;5067871;28;20255;-84
2023/09/09 09:24:44;;;;;;;9.55;8.75;;;;;;;22.94;39.67;93279.25;5069439;28;20226;-84
2023/09/09 09:27:14;;;;;;;8.50;8.00;;;;;;;22.78;39.26;93281.06;5069712;28;20242;-84
2023/09/09 09:29:45;;;;;;;9.98;9.23;;;;;;;23.01;40.08;93280.22;5069284;28;20226;-81
2023/09/09 09:32:11;;;;;;;10.00;9.30;;;;;;;23.02;39.03;93276.44;5068535;28;20225;-83
2023/09/09 09:34:37;;;;;;;9.27;8.48;;;;;;;22.92;39.82;93270.81;5067270;28;20192;-79
2023/09/09 09:37:13;;;;;;;9.38;8.50;;;;;;;22.98;39.86;93267.59;5069360;28;20219;-84
2023/09/09 09:39:39;;;;;;;10.00;9.15;;;;;;;22.96;39.90;93267.13;5069495;28;20200;-83
2023/09/09 09:42:05;;;;;;;9.73;9.00;;;;;;;23.14;38.20;93264.97;5068985;28;20238;-84
2023/09/09 09:44:31;;;;;;;8.95;8.38;;;;;;;23.14;37.61;93256.97;5069505;28;20180;-83
2023/09/09 09:47:04;;;;;;;8.73;7.93;;;;;;;23.18;37.01;93257.84;5067484;28;20232;-82
2023/09/09 09:49:37;;;;;;;9.68;8.98;;;;;;;23.02;38.05;93255.13;5063445;28;20214;-83
2023/09/09 09:52:03;;;;;;;9.10;8.23;;;;;;;22.94;37.79;93247.28;5069275;28;20257;-81
2023/09/09 09:54:30;;;;;;;8.75;8.25;;;;;;;23.16;37.56;93238.78;5069865;28;20176;-83
2023/09/09 09:57:00;;;;;;;9.32;8.52;;;;;;;23.30;37.23;93253.25;5069024;28;20242;-82
2023/09/09 09:59:29;;;;;;;9.80;9.00;;;;;;;23.06;36.63;93257.91;5069479;28;20197;-83
2023/09/09 10:01:55;;;;;;;8.63;8.02;;;;;;;22.99;37.63;93239.81;5068942;28;20211;-82
2023/09/09 10:04:22;;;;;;;9.77;9.07;;;;;;;23.16;37.00;93244.09;5068681;28;20294;-80
2023/09/09 10:06:49;;;;;;;8.68;8.15;;;;;;;23.24;36.98;93241.25;5052513;28;20248;-83
2023/09/09 10:09:35;;;;;;;8.45;8.05;;;;;;;23.41;38.03;93243.66;5048839;28;20191;-82
2023/09/09 10:12:10;;;;;;;8.55;7.75;;;;;;;23.38;37.22;93232.88;5065328;28;20228;-83
2023/09/09 10:14:36;;;;;;;9.02;8.43;;;;;;;23.44;35.68;93234.22;5069007;28;20192;-83
2023/09/09 10:17:06;;;;;;;9.07;8.57;;;;;;;23.10;37.66;93224.91;5069519;28;20267;-83
2023/09/09 10:19:34;;;;;;;8.98;8.38;;;;;;;23.42;36.29;93231.88;5068843;28;20211;-83
2023/09/09 10:22:00;;;;;;;8.57;7.80;;;;;;;23.59;34.99;93230.78;5068138;28;20240;-83
2023/09/09 10:24:28;;;;;;;8.85;8.25;;;;;;;23.77;34.18;93233.88;5069207;28;20183;-82
2023/09/09 10:26:56;;;;;;;7.82;7.43;;;;;;;23.55;34.88;93227.22;5069177;28;20216;-83
2023/09/09 10:29:22;;;;;;;8.35;7.55;;;;;;;23.67;33.95;93222.59;5068202;28;20207;-83
2023/09/09 10:31:48;;;;;;;13.82;7.97;;;;;;;23.60;34.93;93226.97;5068724;28;20238;-82
2023/09/09 10:34:16;;;;;;;8.90;8.18;;;;;;;23.66;35.86;93226.38;5069123;28;20207;-82
2023/09/09 10:36:43;;;;;;;8.82;8.32;;;;;;;23.67;35.41;93221.84;5068932;28;20227;-82
2023/09/09 10:39:11;;;;;;;8.95;8.27;;;;;;;23.83;33.56;93214.59;5069087;28;20176;-82
2023/09/09 10:41:37;;;;;;;9.05;8.45;;;;;;;23.58;34.24;93214.00;5069010;28;20222;-78
2023/09/09 10:44:03;;;;;;;7.70;7.25;;;;;;;23.58;34.09;93202.56;5069116;28;20201;-83
2023/09/09 10:46:37;;;;;;;9.60;8.70;;;;;;;23.66;33.55;93205.06;5068559;28;20223;-82
2023/09/09 10:49:06;;;;;;;8.23;7.75;;;;;;;23.96;32.84;93201.94;5069488;28;20227;-82
2023/09/09 10:51:51;;;;;;;8.60;7.80;;;;;;;23.94;33.56;93198.84;5068691;28;20228;-85
2023/09/09 10:54:23;;;;;;;8.00;7.47;;;;;;;24.09;32.29;93196.19;5058643;28;20189;-85
2023/09/09 10:57:06;;;;;;;8.95;8.23;;;;;;;23.98;34.90;93189.84;5052342;28;20276;-82
2023/09/09 10:59:32;;;;;;;8.68;8.02;;;;;;;24.04;35.15;93191.13;5049147;28;20263;-84
2023/09/09 11:02:12;;;;;;;8.65;7.95;;;;;;;24.15;33.15;93186.78;5048458;28;20295;-83
2023/09/09 11:04:38;;;;;;;8.70;8.18;;;;;;;24.31;32.60;93179.50;5048093;28;20306;-84
2023/09/09 11:07:09;;;;;;;9.00;7.97;;;;;;;24.28;32.12;93176.78;5048510;28;20233;-83
2023/09/09 11:09:36;;;;;;;8.70;8.05;;;;;;;24.40;31.79;93184.66;5048155;28;20228;-84
2023/09/09 11:12:15;;;;;;;8.07;7.60;;;;;;;24.27;30.57;93181.31;5064726;28;20231;-79
2023/09/09 11:14:46;;;;;;;8.32;7.82;;;;;;;24.32;30.79;93181.06;5068843;28;20176;-84
2023/09/09 11:17:12;;;;;;;8.23;7.72;;;;;;;24.39;27.20;93183.13;5068410;28;20228;-84